Time;durP1;ratioP1;P1;durP2;ratioP2;P2;SDS_P1;SDS_P2;PMS_P1;PMS_P2;Temp;Humidity;BMP_temperature;BMP_pressure;BME280_temperature;BME280_humidity;BME280_pressure;Samples;Min_cycle;Max_cycle;Signal;HPM_P1;HPM_P2
2022/08/19 00:00:15;;;;;;;14.43;12.07;;;;;;;;;;5041595;28;20201;-69
2022/08/19 00:02:42;;;;;;;12.82;11.60;;;;;;;;;;5041293;28;20197;-69
2022/08/19 00:05:10;;;;;;;14.25;11.90;;;;;;;;;;5041288;28;20262;-69
2022/08/19 00:07:37;;;;;;;13.07;11.98;;;;;;;;;;5041248;28;20201;-69
2022/08/19 00:10:03;;;;;;;13.50;12.18;;;;;;;;;;5041330;28;20387;-69
2022/08/19 00:12:30;;;;;;;13.38;12.25;;;;;;;;;;5041387;28;20210;-69
2022/08/19 00:14:56;;;;;;;13.68;12.45;;;;;;;;;;5041294;28;20273;-69
2022/08/19 00:17:22;;;;;;;13.35;12.02;;;;;;;;;;5040941;28;20197;-69
2022/08/19 00:19:48;;;;;;;13.57;12.45;;;;;;;;;;5039976;28;20250;-69
2022/08/19 00:22:17;;;;;;;13.43;11.93;;;;;;;;;;5041435;28;20242;-69
2022/08/19 00:24:43;;;;;;;13.10;12.00;;;;;;;;;;5041191;28;20201;-69
2022/08/19 00:27:10;;;;;;;13.73;12.52;;;;;;;;;;5040825;28;20198;-69
2022/08/19 00:29:36;;;;;;;13.80;12.50;;;;;;;;;;5040955;28;20262;-69
2022/08/19 00:32:02;;;;;;;13.80;12.43;;;;;;;;;;5040920;28;20202;-69
2022/08/19 00:34:29;;;;;;;14.25;12.68;;;;;;;;;;5041229;28;20210;-69
2022/08/19 00:36:55;;;;;;;13.68;12.43;;;;;;;;;;5040818;28;20401;-69
2022/08/19 00:39:23;;;;;;;17.48;13.43;;;;;;;;;;5040861;28;20223;-69
2022/08/19 00:41:50;;;;;;;14.90;13.48;;;;;;;;;;5040829;28;20206;-69
2022/08/19 00:44:19;;;;;;;13.90;12.75;;;;;;;;;;5040729;28;20344;-69
2022/08/19 00:46:46;;;;;;;14.93;13.60;;;;;;;;;;5040330;28;20204;-69
2022/08/19 00:49:15;;;;;;;15.15;13.75;;;;;;;;;;5040624;28;20221;-69
2022/08/19 00:51:42;;;;;;;15.57;14.02;;;;;;;;;;5040689;28;20250;-69
2022/08/19 00:54:09;;;;;;;15.20;13.73;;;;;;;;;;5040556;28;20509;-69
2022/08/19 00:56:37;;;;;;;15.43;13.45;;;;;;;;;;5040510;28;20209;-69
2022/08/19 00:59:08;;;;;;;15.27;13.82;;;;;;;;;;5040432;28;20554;-69
2022/08/19 01:01:34;;;;;;;16.35;14.85;;;;;;;;;;5040456;28;20219;-69
2022/08/19 01:04:01;;;;;;;14.32;13.00;;;;;;;;;;5040671;28;20472;-69
2022/08/19 01:06:27;;;;;;;14.75;13.38;;;;;;;;;;5040295;28;20255;-69
2022/08/19 01:08:54;;;;;;;14.90;13.43;;;;;;;;;;5040315;28;20214;-69
2022/08/19 01:11:20;;;;;;;16.75;14.43;;;;;;;;;;5040691;28;20420;-69
2022/08/19 01:13:49;;;;;;;14.48;13.18;;;;;;;;;;5040118;28;20198;-69
2022/08/19 01:16:15;;;;;;;15.73;14.38;;;;;;;;;;5040350;28;20242;-69
2022/08/19 01:18:42;;;;;;;15.00;13.65;;;;;;;;;;5040272;28;20550;-69
2022/08/19 01:21:11;;;;;;;15.85;14.07;;;;;;;;;;5040419;28;20441;-69
2022/08/19 01:23:45;;;;;;;15.73;14.15;;;;;;;;;;5040237;28;20363;-69
2022/08/19 01:26:13;;;;;;;15.30;13.90;;;;;;;;;;5039957;28;20243;-69
2022/08/19 01:28:39;;;;;;;17.05;14.48;;;;;;;;;;5040221;28;20217;-69
2022/08/19 01:31:05;;;;;;;15.75;14.25;;;;;;;;;;5039815;28;20498;-69
2022/08/19 01:33:32;;;;;;;15.38;13.88;;;;;;;;;;5040169;28;20235;-69
2022/08/19 01:36:04;;;;;;;18.00;14.95;;;;;;;;;;5039747;28;20201;-69
2022/08/19 01:38:31;;;;;;;16.00;14.38;;;;;;;;;;5039968;28;20197;-69
2022/08/19 01:40:59;;;;;;;15.25;13.82;;;;;;;;;;5039720;28;20226;-69
2022/08/19 01:43:26;;;;;;;15.65;14.15;;;;;;;;;;5039939;28;20205;-69
2022/08/19 01:45:52;;;;;;;16.13;14.40;;;;;;;;;;5039196;28;20204;-69
2022/08/19 01:48:18;;;;;;;16.08;14.57;;;;;;;;;;5039478;28;20225;-69
2022/08/19 01:50:45;;;;;;;16.98;15.25;;;;;;;;;;5040110;28;20201;-69
2022/08/19 01:53:12;;;;;;;15.95;14.40;;;;;;;;;;5039823;28;20205;-69
2022/08/19 01:55:41;;;;;;;15.85;14.35;;;;;;;;;;5039674;28;20198;-69
2022/08/19 01:58:10;;;;;;;16.08;14.27;;;;;;;;;;5039470;28;20197;-69
2022/08/19 02:00:37;;;;;;;18.23;13.65;;;;;;;;;;5039539;28;20513;-69
2022/08/19 02:03:03;;;;;;;15.07;13.63;;;;;;;;;;5039403;28;20236;-69
2022/08/19 02:05:29;;;;;;;15.75;14.25;;;;;;;;;;5039655;28;20271;-69
2022/08/19 02:07:56;;;;;;;15.98;13.77;;;;;;;;;;5039220;28;20209;-69
2022/08/19 02:10:23;;;;;;;15.45;13.98;;;;;;;;;;5039679;28;20198;-69
2022/08/19 02:12:50;;;;;;;15.80;14.30;;;;;;;;;;5039507;28;20200;-69
2022/08/19 02:15:18;;;;;;;15.43;13.88;;;;;;;;;;5039325;28;20205;-69
2022/08/19 02:17:44;;;;;;;16.33;14.73;;;;;;;;;;5039489;28;20197;-69
2022/08/19 02:20:12;;;;;;;14.60;13.20;;;;;;;;;;5039623;28;20194;-69
2022/08/19 02:22:41;;;;;;;15.30;13.90;;;;;;;;;;5039362;28;20229;-69
2022/08/19 02:25:08;;;;;;;15.35;13.80;;;;;;;;;;5039306;28;20243;-69
2022/08/19 02:27:34;;;;;;;15.55;14.00;;;;;;;;;;5038881;28;20198;-69
2022/08/19 02:30:00;;;;;;;16.48;14.63;;;;;;;;;;5039143;28;20445;-69
2022/08/19 02:32:30;;;;;;;16.20;14.30;;;;;;;;;;5039100;28;20197;-69
2022/08/19 02:34:56;;;;;;;15.10;13.70;;;;;;;;;;5039355;28;20228;-69
2022/08/19 02:40:03;;;;;;;16.42;14.80;;;;;;;;;;5061126;28;20197;-69
2022/08/19 02:42:30;;;;;;;17.40;15.70;;;;;;;;;;5039831;28;20221;-69
2022/08/19 02:44:56;;;;;;;16.73;15.02;;;;;;;;;;5042763;28;20198;-69
2022/08/19 02:47:22;;;;;;;15.32;13.90;;;;;;;;;;5042576;28;20197;-69
2022/08/19 02:49:50;;;;;;;17.80;15.90;;;;;;;;;;5042510;28;20266;-69
2022/08/19 02:52:16;;;;;;;19.33;15.80;;;;;;;;;;5042685;28;20234;-69
2022/08/19 02:54:43;;;;;;;17.27;15.48;;;;;;;;;;5042271;28;20438;-69
2022/08/19 02:57:09;;;;;;;21.75;16.95;;;;;;;;;;5042120;28;20197;-69
2022/08/19 02:59:36;;;;;;;21.08;17.55;;;;;;;;;;5042612;28;20194;-69
2022/08/19 03:02:02;;;;;;;19.27;17.17;;;;;;;;;;5042714;28;20201;-69
2022/08/19 03:04:29;;;;;;;19.63;17.13;;;;;;;;;;5042410;28;20198;-69
2022/08/19 03:06:57;;;;;;;18.63;16.45;;;;;;;;;;5042183;28;20229;-69
2022/08/19 03:09:23;;;;;;;21.50;17.45;;;;;;;;;;5042184;28;20218;-69
2022/08/19 03:11:50;;;;;;;21.92;17.90;;;;;;;;;;5042215;28;20242;-69
2022/08/19 03:14:17;;;;;;;19.23;17.15;;;;;;;;;;5042305;28;20205;-69
2022/08/19 03:16:45;;;;;;;24.33;18.67;;;;;;;;;;5041941;28;20203;-69
2022/08/19 03:19:11;;;;;;;22.27;17.88;;;;;;;;;;5042437;28;20230;-69
2022/08/19 03:21:38;;;;;;;22.63;18.80;;;;;;;;;;5042171;28;20468;-69
2022/08/19 03:24:07;;;;;;;24.13;19.67;;;;;;;;;;5042010;28;20194;-69
2022/08/19 03:26:34;;;;;;;23.55;19.05;;;;;;;;;;5041646;28;20242;-69
2022/08/19 03:29:01;;;;;;;21.95;19.17;;;;;;;;;;5042151;28;20224;-69
2022/08/19 03:31:28;;;;;;;25.50;21.23;;;;;;;;;;5042113;28;20491;-69
2022/08/19 03:33:54;;;;;;;22.35;19.48;;;;;;;;;;5041909;28;20193;-69
2022/08/19 03:36:22;;;;;;;30.35;24.25;;;;;;;;;;5041701;28;20220;-69
2022/08/19 03:38:50;;;;;;;23.23;20.05;;;;;;;;;;5041723;28;20194;-69
2022/08/19 03:41:19;;;;;;;20.48;18.25;;;;;;;;;;5041973;28;20250;-69
2022/08/19 03:43:46;;;;;;;22.52;20.08;;;;;;;;;;5041898;28;20423;-69
2022/08/19 03:46:14;;;;;;;23.75;19.67;;;;;;;;;;5041422;28;20197;-69
2022/08/19 03:48:41;;;;;;;25.45;19.70;;;;;;;;;;5041660;28;20262;-69
2022/08/19 03:51:07;;;;;;;21.35;18.15;;;;;;;;;;5041550;28;20204;-69
2022/08/19 03:53:35;;;;;;;23.77;19.75;;;;;;;;;;5041624;28;20209;-69
2022/08/19 03:56:01;;;;;;;25.17;20.70;;;;;;;;;;5041369;28;20201;-69
2022/08/19 03:58:30;;;;;;;22.45;18.75;;;;;;;;;;5041759;28;20235;-69
2022/08/19 04:00:56;;;;;;;23.98;20.25;;;;;;;;;;5041512;28;20429;-69
2022/08/19 04:03:22;;;;;;;21.90;19.48;;;;;;;;;;5041648;28;20558;-69
2022/08/19 04:05:49;;;;;;;23.15;18.20;;;;;;;;;;5041220;28;20224;-69
2022/08/19 04:08:20;;;;;;;18.85;16.95;;;;;;;;;;5041523;28;20263;-69
2022/08/19 04:10:46;;;;;;;24.55;19.25;;;;;;;;;;5041464;28;20213;-69
2022/08/19 04:13:13;;;;;;;23.33;18.83;;;;;;;;;;5041508;28;20201;-69
2022/08/19 04:15:41;;;;;;;21.70;19.25;;;;;;;;;;5041240;28;20358;-69
2022/08/19 04:18:08;;;;;;;21.60;18.92;;;;;;;;;;5041107;28;20198;-69
2022/08/19 04:20:39;;;;;;;20.10;18.00;;;;;;;;;;5041372;28;20202;-69
2022/08/19 04:23:05;;;;;;;24.40;18.45;;;;;;;;;;5041220;28;20197;-69
2022/08/19 04:25:35;;;;;;;21.77;18.08;;;;;;;;;;5041356;28;20198;-69
2022/08/19 04:28:01;;;;;;;23.67;20.75;;;;;;;;;;5041209;28;20198;-69
2022/08/19 04:30:27;;;;;;;24.33;20.65;;;;;;;;;;5041174;28;20248;-69
2022/08/19 04:32:55;;;;;;;25.90;20.83;;;;;;;;;;5040892;28;20242;-69
2022/08/19 04:35:22;;;;;;;23.20;19.77;;;;;;;;;;5041308;28;20206;-69
2022/08/19 04:37:48;;;;;;;25.45;20.40;;;;;;;;;;5040851;28;20204;-69
2022/08/19 04:42:58;;;;;;;23.75;19.83;;;;;;;;;;5040891;28;20513;-69
2022/08/19 04:45:24;;;;;;;26.58;21.58;;;;;;;;;;5040747;28;20269;-69
2022/08/19 04:47:55;;;;;;;27.92;22.08;;;;;;;;;;5040826;28;20206;-69
2022/08/19 04:50:23;;;;;;;29.10;22.73;;;;;;;;;;5040681;28;20447;-69
2022/08/19 04:52:51;;;;;;;35.80;28.35;;;;;;;;;;5040847;28;20506;-69
2022/08/19 04:55:17;;;;;;;31.55;23.98;;;;;;;;;;5040445;28;20242;-69
2022/08/19 04:57:44;;;;;;;27.67;22.48;;;;;;;;;;5040336;28;20288;-69
2022/08/19 05:00:11;;;;;;;26.08;21.52;;;;;;;;;;5040814;28;20423;-69
2022/08/19 05:02:37;;;;;;;28.20;21.95;;;;;;;;;;5040911;28;20201;-69
2022/08/19 05:05:04;;;;;;;24.08;20.42;;;;;;;;;;5040062;28;20255;-69
2022/08/19 05:07:31;;;;;;;26.23;21.02;;;;;;;;;;5040173;28;20198;-69
2022/08/19 05:09:57;;;;;;;24.13;21.10;;;;;;;;;;5040350;28;20222;-70
2022/08/19 05:12:24;;;;;;;28.35;21.55;;;;;;;;;;5040251;28;20235;-69
2022/08/19 05:14:51;;;;;;;25.50;20.67;;;;;;;;;;5040658;28;20385;-69
2022/08/19 05:17:17;;;;;;;26.13;21.02;;;;;;;;;;5040236;28;20204;-69
2022/08/19 05:22:35;;;;;;;27.65;21.45;;;;;;;;;;5040174;28;20238;-69
2022/08/19 05:25:03;;;;;;;22.55;19.92;;;;;;;;;;5039930;28;20206;-69
2022/08/19 05:27:30;;;;;;;24.63;20.73;;;;;;;;;;5039324;28;20202;-70
2022/08/19 05:29:56;;;;;;;23.63;18.90;;;;;;;;;;5039490;28;20283;-69
2022/08/19 05:32:23;;;;;;;27.50;22.65;;;;;;;;;;5039677;28;20501;-69
2022/08/19 05:34:49;;;;;;;23.20;20.77;;;;;;;;;;5039521;28;20197;-69
2022/08/19 05:37:16;;;;;;;21.75;19.38;;;;;;;;;;5039223;28;20229;-69
2022/08/19 05:39:43;;;;;;;25.52;21.10;;;;;;;;;;5039380;28;20193;-70
2022/08/19 05:42:11;;;;;;;26.33;22.55;;;;;;;;;;5039587;28;20194;-69
2022/08/19 05:44:42;;;;;;;30.63;23.73;;;;;;;;;;5039699;28;20198;-69
2022/08/19 05:47:09;;;;;;;25.77;21.88;;;;;;;;;;5039528;28;20414;-70
2022/08/19 05:49:36;;;;;;;26.73;22.48;;;;;;;;;;5039445;28;20213;-68
2022/08/19 05:52:03;;;;;;;26.38;21.67;;;;;;;;;;5039090;28;20202;-68
2022/08/19 05:54:29;;;;;;;27.60;22.27;;;;;;;;;;5039103;28;20240;-68
2022/08/19 05:56:56;;;;;;;28.48;23.15;;;;;;;;;;5038636;28;20209;-68
2022/08/19 05:59:24;;;;;;;26.02;22.52;;;;;;;;;;5039131;28;20243;-68
2022/08/19 06:01:51;;;;;;;24.73;20.73;;;;;;;;;;5039176;28;20463;-69
2022/08/19 06:04:19;;;;;;;25.98;21.45;;;;;;;;;;5039015;28;20198;-69
2022/08/19 06:06:45;;;;;;;25.02;22.23;;;;;;;;;;5038438;28;20556;-68
2022/08/19 06:09:12;;;;;;;26.65;21.55;;;;;;;;;;5039176;28;20202;-68
2022/08/19 06:11:40;;;;;;;25.17;20.88;;;;;;;;;;5038826;28;20202;-69
2022/08/19 06:14:08;;;;;;;25.23;22.15;;;;;;;;;;5039116;28;20220;-69
2022/08/19 06:16:37;;;;;;;27.15;22.10;;;;;;;;;;5037755;28;20197;-69
2022/08/19 06:19:06;;;;;;;30.35;23.40;;;;;;;;;;5038712;28;20201;-69
2022/08/19 06:21:33;;;;;;;28.58;22.50;;;;;;;;;;5038683;28;20197;-69
2022/08/19 06:23:59;;;;;;;28.52;22.83;;;;;;;;;;5039018;28;20189;-69
2022/08/19 06:26:27;;;;;;;27.80;23.85;;;;;;;;;;5038482;28;20202;-69
2022/08/19 06:28:53;;;;;;;29.20;23.67;;;;;;;;;;5038673;28;20204;-69
2022/08/19 06:31:20;;;;;;;29.00;24.63;;;;;;;;;;5038556;28;20217;-68
2022/08/19 06:33:49;;;;;;;35.13;25.10;;;;;;;;;;5038483;28;20377;-68
2022/08/19 06:36:19;;;;;;;27.67;24.73;;;;;;;;;;5038331;28;20190;-68
2022/08/19 06:38:45;;;;;;;30.50;23.48;;;;;;;;;;5038857;28;20227;-68
2022/08/19 06:41:11;;;;;;;30.33;25.25;;;;;;;;;;5038657;28;20193;-68
2022/08/19 06:43:38;;;;;;;29.20;23.10;;;;;;;;;;5038519;28;20197;-68
2022/08/19 06:46:06;;;;;;;31.25;24.95;;;;;;;;;;5038218;28;20197;-68
2022/08/19 06:48:32;;;;;;;33.70;25.67;;;;;;;;;;5038124;28;20206;-68
2022/08/19 06:51:00;;;;;;;30.02;25.35;;;;;;;;;;5038390;28;20222;-69
2022/08/19 06:53:27;;;;;;;29.25;24.70;;;;;;;;;;5038399;28;20242;-69
2022/08/19 06:56:01;;;;;;;31.17;25.95;;;;;;;;;;5038395;28;20528;-70
2022/08/19 06:58:31;;;;;;;29.25;24.42;;;;;;;;;;5038150;28;20198;-70
2022/08/19 07:01:00;;;;;;;31.35;24.67;;;;;;;;;;5037977;28;20194;-69
2022/08/19 07:03:28;;;;;;;30.42;26.25;;;;;;;;;;5038228;28;20243;-69
2022/08/19 07:05:54;;;;;;;30.17;26.70;;;;;;;;;;5038211;28;20371;-69
2022/08/19 07:08:21;;;;;;;30.10;25.58;;;;;;;;;;5038040;28;20243;-69
2022/08/19 07:10:48;;;;;;;29.33;25.98;;;;;;;;;;5038043;28;20218;-69
2022/08/19 07:13:15;;;;;;;29.50;25.60;;;;;;;;;;5038269;28;20198;-69
2022/08/19 07:15:41;;;;;;;29.45;25.17;;;;;;;;;;5038115;28;20198;-69
2022/08/19 07:18:08;;;;;;;34.03;28.00;;;;;;;;;;5037758;28;20198;-70
2022/08/19 07:20:35;;;;;;;31.27;26.08;;;;;;;;;;5037805;28;20436;-70
2022/08/19 07:23:01;;;;;;;34.45;27.83;;;;;;;;;;5038079;28;20225;-69
2022/08/19 07:25:29;;;;;;;31.38;27.10;;;;;;;;;;5037862;28;20213;-69
2022/08/19 07:27:55;;;;;;;35.17;27.33;;;;;;;;;;5037678;28;20206;-69
2022/08/19 07:30:22;;;;;;;38.38;27.83;;;;;;;;;;5041312;28;20221;-69
2022/08/19 07:32:50;;;;;;;32.17;28.50;;;;;;;;;;5041419;28;20197;-69
2022/08/19 07:35:19;;;;;;;31.60;27.50;;;;;;;;;;5041193;28;20268;-69
2022/08/19 07:37:45;;;;;;;31.77;27.70;;;;;;;;;;5040913;28;20205;-70
2022/08/19 07:40:12;;;;;;;36.45;28.63;;;;;;;;;;5041209;28;20197;-69
2022/08/19 07:42:40;;;;;;;33.80;27.85;;;;;;;;;;5041170;28;20210;-69
2022/08/19 07:45:07;;;;;;;30.40;27.10;;;;;;;;;;5041286;28;20205;-69
2022/08/19 07:47:34;;;;;;;36.30;28.45;;;;;;;;;;5040760;28;20225;-70
2022/08/19 07:50:00;;;;;;;35.42;29.52;;;;;;;;;;5043838;28;20508;-71
2022/08/19 07:52:26;;;;;;;36.30;28.85;;;;;;;;;;5043364;28;20497;-71
2022/08/19 07:54:55;;;;;;;31.55;26.13;;;;;;;;;;5041492;28;20258;-71
2022/08/19 07:57:21;;;;;;;31.67;27.35;;;;;;;;;;5041189;28;20198;-70
2022/08/19 07:59:49;;;;;;;36.47;28.05;;;;;;;;;;5041675;28;20198;-71
2022/08/19 08:02:15;;;;;;;34.25;27.50;;;;;;;;;;5041562;28;20198;-70
2022/08/19 08:10:17;;;;;;;37.53;29.55;;;;;;;;;;5016972;28;20224;-70
2022/08/19 08:12:45;;;;;;;35.90;28.58;;;;;;;;;;5041399;28;20202;-71
2022/08/19 08:15:16;;;;;;;33.92;29.27;;;;;;;;;;5041550;28;20429;-71
2022/08/19 08:17:43;;;;;;;36.55;28.55;;;;;;;;;;5040876;28;20205;-71
2022/08/19 08:20:10;;;;;;;35.13;27.60;;;;;;;;;;5041182;28;20273;-70
2022/08/19 08:25:22;;;;;;;35.90;27.85;;;;;;;;;;5041267;28;20212;-70
2022/08/19 08:27:49;;;;;;;32.60;26.80;;;;;;;;;;5040988;28;20197;-70
2022/08/19 08:30:18;;;;;;;36.63;28.30;;;;;;;;;;5040998;28;20421;-70
2022/08/19 08:32:44;;;;;;;33.60;26.08;;;;;;;;;;5040878;28;20518;-70
2022/08/19 08:35:12;;;;;;;32.22;26.10;;;;;;;;;;5041132;28;20198;-70
2022/08/19 08:37:39;;;;;;;33.42;25.92;;;;;;;;;;5040730;28;20198;-70
2022/08/19 08:40:06;;;;;;;32.13;26.77;;;;;;;;;;5039841;28;20205;-70
2022/08/19 08:42:34;;;;;;;32.83;26.23;;;;;;;;;;5040830;28;20284;-71
2022/08/19 08:45:03;;;;;;;31.13;27.02;;;;;;;;;;5040854;28;20234;-70
2022/08/19 08:47:32;;;;;;;30.05;26.38;;;;;;;;;;5040718;28;20378;-68
2022/08/19 08:50:01;;;;;;;29.98;24.80;;;;;;;;;;5040688;28;20207;-71
2022/08/19 08:52:29;;;;;;;35.80;26.58;;;;;;;;;;5041113;28;20206;-70
2022/08/19 08:54:57;;;;;;;29.60;24.42;;;;;;;;;;5040537;28;20627;-68
2022/08/19 08:57:28;;;;;;;32.38;25.40;;;;;;;;;;5040310;28;20205;-74
2022/08/19 08:59:55;;;;;;;29.52;25.15;;;;;;;;;;5040668;28;20498;-69
2022/08/19 09:02:21;;;;;;;28.98;25.05;;;;;;;;;;5040449;28;20194;-70
2022/08/19 09:04:49;;;;;;;30.50;26.35;;;;;;;;;;5040637;28;20254;-70
2022/08/19 09:07:26;;;;;;;29.40;24.98;;;;;;;;;;5040317;28;20243;-70
2022/08/19 09:09:53;;;;;;;27.08;24.17;;;;;;;;;;5040486;28;20204;-69
2022/08/19 09:12:22;;;;;;;28.52;25.33;;;;;;;;;;5040033;28;20257;-69
2022/08/19 09:14:50;;;;;;;26.23;22.88;;;;;;;;;;5040533;28;20210;-69
2022/08/19 09:17:16;;;;;;;26.80;23.52;;;;;;;;;;5039882;28;20197;-69
2022/08/19 09:19:55;;;;;;;25.13;22.42;;;;;;;;;;5040228;28;20497;-71
2022/08/19 09:22:22;;;;;;;32.08;24.85;;;;;;;;;;5040181;28;20489;-70
2022/08/19 09:24:48;;;;;;;26.25;23.52;;;;;;;;;;5040298;28;20404;-71
2022/08/19 09:27:15;;;;;;;25.95;22.70;;;;;;;;;;5039828;28;20198;-69
2022/08/19 09:29:41;;;;;;;26.88;22.98;;;;;;;;;;5040209;28;20198;-68
2022/08/19 09:32:07;;;;;;;24.92;21.38;;;;;;;;;;5040111;28;20663;-71
2022/08/19 09:34:34;;;;;;;27.17;22.85;;;;;;;;;;5040097;28;20213;-70
2022/08/19 09:37:02;;;;;;;30.90;25.38;;;;;;;;;;5039680;28;20434;-70
2022/08/19 09:39:30;;;;;;;27.30;22.88;;;;;;;;;;5040239;28;20227;-70
2022/08/19 09:41:56;;;;;;;25.65;22.65;;;;;;;;;;5040128;28;20269;-70
2022/08/19 09:44:23;;;;;;;29.67;23.80;;;;;;;;;;5039951;28;20198;-70
2022/08/19 09:46:50;;;;;;;27.00;22.45;;;;;;;;;;5039661;28;20198;-70
2022/08/19 09:49:17;;;;;;;26.65;21.40;;;;;;;;;;5039688;28;20202;-70
2022/08/19 09:51:44;;;;;;;27.20;23.77;;;;;;;;;;5039216;28;20214;-69
2022/08/19 09:54:11;;;;;;;25.98;23.17;;;;;;;;;;5039621;28;20258;-70
2022/08/19 09:56:37;;;;;;;25.65;21.58;;;;;;;;;;5039422;28;20235;-70
2022/08/19 09:59:04;;;;;;;30.58;22.52;;;;;;;;;;5039704;28;20543;-69
2022/08/19 10:01:31;;;;;;;34.33;24.80;;;;;;;;;;5039786;28;20407;-69
2022/08/19 10:03:59;;;;;;;28.27;24.15;;;;;;;;;;5039340;28;20202;-69
2022/08/19 10:06:29;;;;;;;28.63;23.40;;;;;;;;;;5039305;28;20225;-69
2022/08/19 10:08:56;;;;;;;31.38;24.05;;;;;;;;;;5039459;28;20502;-68
2022/08/19 10:11:23;;;;;;;28.63;23.75;;;;;;;;;;5039471;28;20217;-68
2022/08/19 10:13:49;;;;;;;26.42;23.17;;;;;;;;;;5039424;28;20205;-69
2022/08/19 10:16:17;;;;;;;29.15;22.00;;;;;;;;;;5039261;28;20206;-69
2022/08/19 10:18:44;;;;;;;25.45;21.95;;;;;;;;;;5039189;28;20214;-69
2022/08/19 10:21:13;;;;;;;26.42;22.70;;;;;;;;;;5039574;28;20422;-71
2022/08/19 10:23:44;;;;;;;27.27;22.80;;;;;;;;;;5039311;28;20640;-69
2022/08/19 10:26:11;;;;;;;29.17;24.73;;;;;;;;;;5039180;28;20197;-69
2022/08/19 10:28:38;;;;;;;28.48;25.40;;;;;;;;;;5039091;28;20197;-68
2022/08/19 10:31:06;;;;;;;32.40;25.60;;;;;;;;;;5038970;28;20280;-70
2022/08/19 10:33:32;;;;;;;31.13;23.95;;;;;;;;;;5039000;28;20213;-69
2022/08/19 10:36:02;;;;;;;27.50;23.30;;;;;;;;;;5039199;28;20206;-71
2022/08/19 10:38:29;;;;;;;27.10;24.10;;;;;;;;;;5039203;28;20509;-70
2022/08/19 10:40:55;;;;;;;28.60;24.80;;;;;;;;;;5039215;28;20200;-71
2022/08/19 10:43:21;;;;;;;31.88;25.08;;;;;;;;;;5039145;28;20397;-69
2022/08/19 10:45:52;;;;;;;30.77;26.75;;;;;;;;;;5038854;28;20258;-69
2022/08/19 10:48:18;;;;;;;30.13;26.83;;;;;;;;;;5038995;28;20392;-70
2022/08/19 10:53:28;;;;;;;30.38;25.25;;;;;;;;;;5038879;28;20200;-71
2022/08/19 10:58:38;;;;;;;30.52;24.58;;;;;;;;;;5039088;28;20439;-70
2022/08/19 11:01:06;;;;;;;27.52;24.48;;;;;;;;;;5038973;28;20547;-69
2022/08/19 11:03:32;;;;;;;30.92;26.30;;;;;;;;;;5039981;28;20213;-69
2022/08/19 11:05:59;;;;;;;28.55;24.35;;;;;;;;;;5041907;28;20218;-70
2022/08/19 11:08:26;;;;;;;30.30;26.90;;;;;;;;;;5042106;28;20200;-71
2022/08/19 11:10:58;;;;;;;35.13;28.73;;;;;;;;;;5042046;28;20205;-70
2022/08/19 11:13:25;;;;;;;30.58;26.38;;;;;;;;;;5042485;28;20400;-70
2022/08/19 11:15:59;;;;;;;31.92;27.38;;;;;;;;;;5042313;28;20436;-69
2022/08/19 11:18:26;;;;;;;31.63;26.60;;;;;;;;;;5042125;28;20198;-71
2022/08/19 11:20:53;;;;;;;29.73;26.52;;;;;;;;;;5042243;28;20558;-70
2022/08/19 11:23:19;;;;;;;32.38;27.77;;;;;;;;;;5041790;28;20387;-70
2022/08/19 11:25:46;;;;;;;32.17;27.00;;;;;;;;;;5041828;28;20198;-70
2022/08/19 11:28:12;;;;;;;35.60;28.83;;;;;;;;;;5041957;28;20198;-71
2022/08/19 11:30:38;;;;;;;30.67;27.02;;;;;;;;;;5041934;28;20217;-70
2022/08/19 11:33:05;;;;;;;31.38;27.73;;;;;;;;;;5041888;28;20270;-70
2022/08/19 11:35:32;;;;;;;38.30;31.33;;;;;;;;;;5041891;28;20550;-70
2022/08/19 11:37:59;;;;;;;35.35;28.20;;;;;;;;;;5041370;28;20212;-69
2022/08/19 11:40:25;;;;;;;32.75;28.98;;;;;;;;;;5042028;28;20198;-70
2022/08/19 11:42:58;;;;;;;33.88;26.38;;;;;;;;;;5041962;28;20198;-70
2022/08/19 11:45:24;;;;;;;33.28;28.92;;;;;;;;;;5042011;28;20380;-70
2022/08/19 11:47:50;;;;;;;35.38;26.92;;;;;;;;;;5041503;28;20243;-70
2022/08/19 11:50:17;;;;;;;34.33;28.73;;;;;;;;;;5041508;28;20204;-70
2022/08/19 11:52:45;;;;;;;38.25;31.70;;;;;;;;;;5041215;28;20221;-70
2022/08/19 11:55:11;;;;;;;34.05;28.67;;;;;;;;;;5041747;28;20213;-70
2022/08/19 11:57:37;;;;;;;33.08;27.45;;;;;;;;;;5041374;28;20251;-70
2022/08/19 12:00:05;;;;;;;31.85;26.48;;;;;;;;;;5041586;28;20243;-70
2022/08/19 12:02:32;;;;;;;32.45;27.65;;;;;;;;;;5041290;28;20198;-70
2022/08/19 12:04:58;;;;;;;30.13;27.02;;;;;;;;;;5041397;28;20218;-70
2022/08/19 12:07:24;;;;;;;32.13;28.13;;;;;;;;;;5041171;28;20206;-70
2022/08/19 12:09:52;;;;;;;36.25;30.63;;;;;;;;;;5041343;28;20246;-70
2022/08/19 12:12:18;;;;;;;36.67;28.77;;;;;;;;;;5041259;28;20217;-70
2022/08/19 12:14:46;;;;;;;38.33;29.27;;;;;;;;;;5041626;28;20197;-70
2022/08/19 12:17:13;;;;;;;30.17;26.95;;;;;;;;;;5040946;28;20227;-70
2022/08/19 12:19:39;;;;;;;33.20;27.67;;;;;;;;;;5041043;28;20269;-70
2022/08/19 12:22:07;;;;;;;33.40;29.25;;;;;;;;;;5041436;28;20193;-70
2022/08/19 12:24:34;;;;;;;32.88;28.15;;;;;;;;;;5041226;28;20198;-70
2022/08/19 12:27:02;;;;;;;31.85;27.75;;;;;;;;;;5040870;28;20198;-70
2022/08/19 12:29:29;;;;;;;32.95;29.35;;;;;;;;;;5041067;28;20392;-70
2022/08/19 12:32:00;;;;;;;34.85;29.58;;;;;;;;;;5040954;28;20217;-70
2022/08/19 12:34:29;;;;;;;34.58;28.88;;;;;;;;;;5041035;28;20257;-70
2022/08/19 12:36:55;;;;;;;33.75;28.80;;;;;;;;;;5040725;28;20279;-70
2022/08/19 12:39:21;;;;;;;35.45;30.50;;;;;;;;;;5041053;28;20197;-70
2022/08/19 12:41:48;;;;;;;37.92;31.27;;;;;;;;;;5040865;28;20498;-70
2022/08/19 12:44:16;;;;;;;40.33;31.05;;;;;;;;;;5040885;28;20463;-70
2022/08/19 12:46:42;;;;;;;35.20;30.25;;;;;;;;;;5040477;28;20220;-70
2022/08/19 12:49:09;;;;;;;32.03;28.52;;;;;;;;;;5040977;28;20517;-70
2022/08/19 12:51:36;;;;;;;34.47;29.67;;;;;;;;;;5040671;28;20285;-70
2022/08/19 12:54:03;;;;;;;36.45;29.80;;;;;;;;;;5040759;28;20518;-70
2022/08/19 12:56:29;;;;;;;35.80;30.33;;;;;;;;;;5040767;28;20198;-70
2022/08/19 12:58:55;;;;;;;33.78;29.70;;;;;;;;;;5040774;28;20210;-70
2022/08/19 13:01:23;;;;;;;32.03;28.05;;;;;;;;;;5040481;28;20201;-70
2022/08/19 13:03:49;;;;;;;35.15;27.95;;;;;;;;;;5040911;28;20545;-70
2022/08/19 13:06:16;;;;;;;35.92;27.98;;;;;;;;;;5040316;28;20255;-70
2022/08/19 13:08:42;;;;;;;35.80;29.40;;;;;;;;;;5040504;28;20535;-70
2022/08/19 13:11:11;;;;;;;37.38;29.63;;;;;;;;;;5040536;28;20205;-70
2022/08/19 13:13:40;;;;;;;38.17;31.67;;;;;;;;;;5040460;28;20611;-70
2022/08/19 13:16:07;;;;;;;38.60;32.38;;;;;;;;;;5040187;28;20212;-70
2022/08/19 13:18:35;;;;;;;38.83;32.22;;;;;;;;;;5040400;28;20384;-70
2022/08/19 13:21:03;;;;;;;41.50;31.63;;;;;;;;;;5040416;28;20393;-70
2022/08/19 13:23:30;;;;;;;39.30;32.58;;;;;;;;;;5040271;28;20385;-70
2022/08/19 13:25:56;;;;;;;37.55;31.48;;;;;;;;;;5039499;28;20269;-70
2022/08/19 13:28:23;;;;;;;40.58;31.65;;;;;;;;;;5040150;28;20242;-70
2022/08/19 13:33:35;;;;;;;37.50;31.70;;;;;;;;;;5039972;28;20227;-70
2022/08/19 13:36:01;;;;;;;35.85;30.77;;;;;;;;;;5039996;28;20205;-70
2022/08/19 13:38:28;;;;;;;43.13;33.13;;;;;;;;;;5040064;28;20396;-70
2022/08/19 13:40:55;;;;;;;37.03;31.23;;;;;;;;;;5039796;28;20239;-70
2022/08/19 13:43:24;;;;;;;37.65;33.03;;;;;;;;;;5040084;28;20197;-70
2022/08/19 13:45:51;;;;;;;35.58;31.08;;;;;;;;;;5040160;28;20539;-70
2022/08/19 13:48:18;;;;;;;42.83;32.90;;;;;;;;;;5039895;28;20204;-70
2022/08/19 13:50:47;;;;;;;39.40;33.10;;;;;;;;;;5039826;28;20204;-70
2022/08/19 13:53:13;;;;;;;41.88;34.03;;;;;;;;;;5039743;28;20218;-70
2022/08/19 13:55:40;;;;;;;40.55;33.22;;;;;;;;;;5039735;28;20205;-70
2022/08/19 13:58:06;;;;;;;40.25;31.27;;;;;;;;;;5039695;28;20198;-70
2022/08/19 14:00:33;;;;;;;34.42;29.55;;;;;;;;;;5039846;28;20197;-70
2022/08/19 14:02:59;;;;;;;39.45;32.22;;;;;;;;;;5039768;28;20194;-70
2022/08/19 14:05:27;;;;;;;38.33;32.15;;;;;;;;;;5039734;28;20218;-70
2022/08/19 14:07:54;;;;;;;38.25;32.95;;;;;;;;;;5039369;28;20250;-70
2022/08/19 14:10:21;;;;;;;36.55;32.33;;;;;;;;;;5039886;28;20205;-70
2022/08/19 14:12:48;;;;;;;36.92;31.00;;;;;;;;;;5039564;28;20221;-70
2022/08/19 14:15:14;;;;;;;38.92;32.10;;;;;;;;;;5039493;28;20239;-70
2022/08/19 14:17:42;;;;;;;35.67;30.77;;;;;;;;;;5039228;28;20251;-70
2022/08/19 14:20:09;;;;;;;35.17;31.15;;;;;;;;;;5039567;28;20206;-70
2022/08/19 14:22:36;;;;;;;36.15;30.17;;;;;;;;;;5039248;28;20231;-70
2022/08/19 14:25:04;;;;;;;38.83;30.77;;;;;;;;;;5039769;28;20198;-70
2022/08/19 14:27:31;;;;;;;36.63;30.30;;;;;;;;;;5039257;28;20434;-70
2022/08/19 14:29:57;;;;;;;38.08;31.90;;;;;;;;;;5039472;28;20205;-70
2022/08/19 14:32:24;;;;;;;38.45;31.92;;;;;;;;;;5039310;28;20214;-70
2022/08/19 14:34:51;;;;;;;34.00;29.48;;;;;;;;;;5039359;28;20225;-70
2022/08/19 14:37:17;;;;;;;37.75;31.15;;;;;;;;;;5038914;28;20795;-70
2022/08/19 14:39:44;;;;;;;35.17;31.33;;;;;;;;;;5038732;28;20198;-70